Time;durP1;ratioP1;P1;durP2;ratioP2;P2;SDS_P1;SDS_P2;PMS_P1;PMS_P2;Temp;Humidity;BMP_temperature;BMP_pressure;BME280_temperature;BME280_humidity;BME280_pressure;Samples;Min_cycle;Max_cycle;Signal;HPM_P1;HPM_P2
2021/12/04 00:02:06;;;;;;;;;;;;;;;21.02;42.01;99538.47;7279749;19;151878;-51
2021/12/04 00:04:38;;;;;;;;;;;;;;;21.02;42.22;99538.47;7279386;19;153716;-51
2021/12/04 00:07:07;;;;;;;;;;;;;;;20.99;41.67;99534.34;7278543;19;153015;-50
2021/12/04 00:09:34;;;;;;;;;;;;;;;20.97;41.88;99544.31;7281170;19;153715;-50
2021/12/04 00:12:03;;;;;;;;;;;;;;;20.94;41.85;99526.13;7281867;19;153880;-50
2021/12/04 00:14:30;;;;;;;;;;;;;;;20.92;41.70;99528.50;7281287;19;153514;-50
2021/12/04 00:17:02;;;;;;;;;;;;;;;20.97;42.17;99528.28;7289675;19;152878;-50
2021/12/04 00:19:29;;;;;;;;;;;;;;;20.95;41.98;99512.94;7281996;19;151986;-50
2021/12/04 00:21:56;;;;;;;;;;;;;;;20.94;42.33;99519.72;7283094;19;152689;-50
2021/12/04 00:24:24;;;;;;;;;;;;;;;20.90;42.54;99511.16;7278604;19;153944;-50
2021/12/04 00:26:51;;;;;;;;;;;;;;;20.90;42.85;99513.13;7282502;19;151556;-51
2021/12/04 00:29:18;;;;;;;;;;;;;;;20.88;42.88;99521.09;7286601;19;153594;-50
2021/12/04 00:31:48;;;;;;;;;;;;;;;20.84;42.74;99510.56;7289461;19;154081;-50
2021/12/04 00:34:16;;;;;;;;;;;;;;;20.82;42.96;99507.28;7290034;19;152431;-50
2021/12/04 00:50:15;;;;;;;;;;;;;;;20.70;43.81;99503.63;7290336;19;153185;-51
2021/12/04 00:52:42;;;;;;;;;;;;;;;20.68;43.68;99512.38;7289171;19;154303;-51
2021/12/04 00:55:09;;;;;;;;;;;;;;;20.65;43.62;99507.47;7290072;19;151763;-51
2021/12/04 00:57:35;;;;;;;;;;;;;;;20.65;44.13;99501.00;7289551;19;153804;-50
2021/12/04 01:00:02;;;;;;;;;;;;;;;20.62;44.08;99508.16;7288601;19;153818;-51
2021/12/04 01:02:29;;;;;;;;;;;;;;;20.61;44.21;99506.50;7297835;19;151842;-50
2021/12/04 01:04:56;;;;;;;;;;;;;;;20.57;44.27;99511.16;7286167;19;152362;-51
2021/12/04 01:07:24;;;;;;;;;;;;;;;20.58;44.04;99507.16;7287956;19;151741;-51
2021/12/04 01:09:52;;;;;;;;;;;;;;;20.56;43.93;99503.09;7287277;19;153395;-53
2021/12/04 01:12:18;;;;;;;;;;;;;;;20.55;44.02;99507.03;7288908;19;153254;-51
2021/12/04 01:14:45;;;;;;;;;;;;;;;20.51;43.93;99514.50;7288818;19;151786;-50
2021/12/04 01:17:12;;;;;;;;;;;;;;;20.51;43.83;99517.31;7288294;19;153458;-50
2021/12/04 01:19:39;;;;;;;;;;;;;;;20.46;44.05;99520.31;7286341;19;153800;-50
2021/12/04 01:22:05;;;;;;;;;;;;;;;20.44;44.35;99517.06;7295341;19;152214;-50
2021/12/04 01:24:32;;;;;;;;;;;;;;;20.44;44.21;99523.50;7284957;19;154034;-50
2021/12/04 01:26:59;;;;;;;;;;;;;;;20.42;44.35;99528.63;7288972;19;151847;-51
2021/12/04 01:29:25;;;;;;;;;;;;;;;20.39;44.58;99532.94;7287716;19;151902;-50
2021/12/04 01:31:52;;;;;;;;;;;;;;;20.34;44.30;99523.91;7288647;19;153249;-50
2021/12/04 01:34:19;;;;;;;;;;;;;;;20.35;44.76;99531.16;7288781;19;151864;-50
2021/12/04 01:36:45;;;;;;;;;;;;;;;20.31;44.57;99519.78;7285965;19;152190;-50
2021/12/04 01:39:12;;;;;;;;;;;;;;;20.30;44.50;99520.13;7288311;19;153259;-51
2021/12/04 01:41:39;;;;;;;;;;;;;;;20.25;44.47;99523.94;7284950;19;152217;-50
2021/12/04 01:44:06;;;;;;;;;;;;;;;20.24;44.56;99518.66;7293257;19;152473;-50
2021/12/04 01:46:34;;;;;;;;;;;;;;;20.20;44.78;99521.34;7289005;19;151963;-50
2021/12/04 01:49:00;;;;;;;;;;;;;;;20.19;44.97;99510.44;7289037;19;152746;-50
2021/12/04 01:51:27;;;;;;;;;;;;;;;20.17;45.20;99509.97;7287253;19;153550;-50
2021/12/04 01:53:54;;;;;;;;;;;;;;;20.16;44.83;99523.19;7287571;19;151578;-50
2021/12/04 01:56:21;;;;;;;;;;;;;;;20.13;45.36;99511.78;7286830;19;153362;-50
2021/12/04 01:58:48;;;;;;;;;;;;;;;20.11;45.19;99511.34;7286758;19;153943;-50
2021/12/04 02:01:14;;;;;;;;;;;;;;;20.09;45.10;99502.44;7287643;19;152216;-50
2021/12/04 02:03:41;;;;;;;;;;;;;;;20.06;45.60;99503.94;7288035;19;153977;-50
2021/12/04 02:06:08;;;;;;;;;;;;;;;20.04;45.63;99492.22;7291667;19;154083;-50
2021/12/04 02:08:34;;;;;;;;;;;;;;;20.03;45.70;99501.00;7287291;19;152993;-50
2021/12/04 02:11:01;;;;;;;;;;;;;;;19.99;45.44;99493.25;7286881;19;154246;-51
2021/12/04 02:13:29;;;;;;;;;;;;;;;20.00;45.91;99502.50;7287667;19;151943;-50
2021/12/04 02:15:58;;;;;;;;;;;;;;;19.95;46.20;99497.06;7286250;19;153410;-50
2021/12/04 02:18:28;;;;;;;;;;;;;;;19.94;45.68;99499.06;7285907;19;152340;-51
2021/12/04 02:20:55;;;;;;;;;;;;;;;19.91;45.84;99499.75;7287559;19;151816;-50
2021/12/04 02:23:25;;;;;;;;;;;;;;;19.88;46.02;99494.00;7285764;19;152542;-51
2021/12/04 02:25:51;;;;;;;;;;;;;;;19.86;46.10;99493.50;7284401;19;153571;-51
2021/12/04 02:28:18;;;;;;;;;;;;;;;19.85;46.18;99501.09;7293474;19;151778;-49
2021/12/04 02:30:45;;;;;;;;;;;;;;;19.82;46.74;99493.38;7285082;19;153857;-50
2021/12/04 02:33:12;;;;;;;;;;;;;;;19.79;46.46;99488.47;7286938;19;151745;-50
2021/12/04 02:35:45;;;;;;;;;;;;;;;19.78;46.71;99491.59;7287333;19;152778;-50
2021/12/04 02:38:12;;;;;;;;;;;;;;;19.75;46.59;99479.09;7286614;19;153337;-50
2021/12/04 02:40:39;;;;;;;;;;;;;;;19.75;46.80;99483.88;7284749;19;152084;-50
2021/12/04 02:43:05;;;;;;;;;;;;;;;19.74;46.55;99485.03;7287630;19;152606;-50
2021/12/04 02:45:32;;;;;;;;;;;;;;;19.72;46.62;99482.53;7281253;19;153811;-50
2021/12/04 02:47:59;;;;;;;;;;;;;;;19.70;46.88;99481.25;7287311;19;151708;-50
2021/12/04 02:50:26;;;;;;;;;;;;;;;19.69;47.02;99480.44;7292678;19;153351;-50
2021/12/04 02:52:52;;;;;;;;;;;;;;;19.66;46.61;99481.13;7287348;19;151865;-50
2021/12/04 02:55:19;;;;;;;;;;;;;;;19.65;46.69;99482.28;7286109;19;151795;-50
2021/12/04 02:57:46;;;;;;;;;;;;;;;19.64;46.81;99477.00;7284584;19;153379;-50
2021/12/04 03:00:21;;;;;;;;;;;;;;;19.62;47.09;99482.13;7286564;19;151991;-50
2021/12/04 03:02:47;;;;;;;;;;;;;;;19.63;46.99;99480.94;7287103;19;152501;-50
2021/12/04 03:05:21;;;;;;;;;;;;;;;19.60;46.79;99478.84;7281806;19;153265;-50
2021/12/04 03:07:47;;;;;;;;;;;;;;;19.58;46.91;99479.16;7283553;19;151547;-50
2021/12/04 03:10:14;;;;;;;;;;;;;;;19.57;47.15;99471.13;7285378;19;151707;-50
2021/12/04 03:12:41;;;;;;;;;;;;;;;19.55;47.17;99465.84;7293229;19;151970;-51
2021/12/04 03:15:08;;;;;;;;;;;;;;;19.54;47.27;99465.00;7285607;19;152525;-50
2021/12/04 03:17:34;;;;;;;;;;;;;;;19.53;47.70;99448.56;7285122;19;153526;-50
2021/12/04 03:20:03;;;;;;;;;;;;;;;19.51;47.61;99445.28;7285972;19;151884;-50
2021/12/04 03:22:29;;;;;;;;;;;;;;;19.49;47.29;99437.19;7286740;19;152915;-50
2021/12/04 03:24:57;;;;;;;;;;;;;;;19.47;47.42;99421.91;7283751;19;154479;-50
2021/12/04 03:27:25;;;;;;;;;;;;;;;19.47;47.53;99419.91;7285106;19;152012;-50
2021/12/04 03:29:58;;;;;;;;;;;;;;;19.44;47.60;99426.19;7285210;19;151825;-50
2021/12/04 03:35:20;;;;;;;;;;;;;;;19.41;47.49;99426.00;7286128;19;152612;-50
2021/12/04 03:40:52;;;;;;;;;;;;;;;19.38;47.56;99416.31;7285937;19;151770;-50
2021/12/04 03:43:19;;;;;;;;;;;;;;;19.37;47.60;99416.66;7283437;19;153138;-50
2021/12/04 03:45:52;;;;;;;;;;;;;;;19.34;47.46;99420.13;7282089;19;153222;-50
2021/12/04 03:51:00;;;;;;;;;;;;;;;19.33;47.58;99415.69;7285166;19;153856;-50
2021/12/04 03:53:27;;;;;;;;;;;;;;;19.32;47.72;99405.63;7284182;19;154477;-50
2021/12/04 03:55:54;;;;;;;;;;;;;;;19.29;47.67;99400.72;7289828;19;152427;-50
2021/12/04 03:58:21;;;;;;;;;;;;;;;19.26;47.54;99395.81;7283950;19;154189;-50
2021/12/04 04:00:49;;;;;;;;;;;;;;;19.24;47.66;99407.34;7284172;19;151894;-50
2021/12/04 04:03:16;;;;;;;;;;;;;;;19.24;47.77;99410.13;7283891;19;152639;-50
2021/12/04 04:05:43;;;;;;;;;;;;;;;19.23;47.94;99402.06;7280753;19;153309;-51
2021/12/04 04:08:14;;;;;;;;;;;;;;;19.21;47.89;99404.38;7283577;19;152021;-50
2021/12/04 04:10:42;;;;;;;;;;;;;;;19.19;47.50;99399.13;7284530;19;153226;-50
2021/12/04 04:13:11;;;;;;;;;;;;;;;19.18;47.88;99391.88;7282426;19;152620;-50
2021/12/04 04:15:39;;;;;;;;;;;;;;;19.17;47.55;99395.81;7284247;19;152090;-50
2021/12/04 04:18:06;;;;;;;;;;;;;;;19.15;47.90;99398.16;7289186;19;153419;-50
2021/12/04 04:20:32;;;;;;;;;;;;;;;19.14;48.06;99401.28;7284390;19;152278;-50
2021/12/04 04:22:59;;;;;;;;;;;;;;;19.12;47.74;99387.63;7284985;19;153393;-51
2021/12/04 04:25:26;;;;;;;;;;;;;;;19.12;47.92;99389.63;7281331;19;153115;-51
2021/12/04 04:27:52;;;;;;;;;;;;;;;19.09;48.07;99396.69;7284246;19;152188;-50
2021/12/04 04:30:19;;;;;;;;;;;;;;;19.07;47.74;99396.22;7284141;19;153647;-50
2021/12/04 04:32:48;;;;;;;;;;;;;;;19.05;47.75;99392.94;7282918;19;152717;-50
2021/12/04 04:35:19;;;;;;;;;;;;;;;19.03;47.87;99387.66;7282782;19;151579;-50
2021/12/04 04:57:24;;;;;;;;;;;;;;;19.02;47.85;99379.63;7290143;19;154320;-50
2021/12/04 05:13:23;;;;;;;;;;;;;;;18.85;48.72;99376.91;7279571;19;152760;-50
2021/12/04 05:21:03;;;;;;;;;;;;;;;18.82;48.71;99381.16;7288703;19;151787;-50
2021/12/04 05:23:35;;;;;;;;;;;;;;;18.79;48.97;99383.81;7287486;19;154099;-50
2021/12/04 05:26:03;;;;;;;;;;;;;;;18.77;49.02;99384.16;7295811;19;152140;-50
2021/12/04 05:28:30;;;;;;;;;;;;;;;18.77;49.13;99378.56;7288301;19;153327;-50
2021/12/04 05:30:57;;;;;;;;;;;;;;;18.77;48.93;99378.56;7285946;19;151537;-50
2021/12/04 05:33:24;;;;;;;;;;;;;;;18.76;49.13;99392.91;7286798;19;153769;-50
2021/12/04 05:35:52;;;;;;;;;;;;;;;18.74;48.93;99386.78;7288299;19;153172;-50
2021/12/04 05:38:19;;;;;;;;;;;;;;;18.72;49.00;99392.72;7288914;19;151527;-50
2021/12/04 05:40:46;;;;;;;;;;;;;;;18.71;48.95;99385.50;7287997;19;153253;-50
2021/12/04 05:43:13;;;;;;;;;;;;;;;18.69;49.10;99393.41;7287991;19;153349;-50
2021/12/04 05:45:48;;;;;;;;;;;;;;;18.68;49.07;99400.13;7287539;19;151642;-50
2021/12/04 05:48:22;;;;;;;;;;;;;;;18.65;48.78;99398.03;7294970;19;152608;-50
2021/12/04 05:55:56;;;;;;;;;;;;;;;18.63;48.81;99397.53;7286906;19;153118;-50
2021/12/04 05:58:25;;;;;;;;;;;;;;;18.60;49.25;99398.19;7287961;19;152873;-50
2021/12/04 06:00:56;;;;;;;;;;;;;;;18.58;49.13;99401.31;7286874;19;153296;-50
2021/12/04 06:03:24;;;;;;;;;;;;;;;18.59;49.16;99399.34;7288610;19;153711;-51
2021/12/04 06:05:51;;;;;;;;;;;;;;;18.55;49.24;99388.00;7286564;19;151984;-50
2021/12/04 06:08:19;;;;;;;;;;;;;;;18.55;49.08;99390.81;7288590;19;152615;-50
2021/12/04 06:10:47;;;;;;;;;;;;;;;18.55;49.18;99392.78;7293724;19;154174;-50
2021/12/04 06:13:14;;;;;;;;;;;;;;;18.55;49.12;99390.81;7287676;19;155175;-50
2021/12/04 06:15:41;;;;;;;;;;;;;;;18.51;49.12;99394.56;7282927;19;153946;-50
2021/12/04 06:18:08;;;;;;;;;;;;;;;18.54;48.76;99394.75;7288029;19;151911;-50
2021/12/04 06:23:21;;;;;;;;;;;;;;;18.63;49.34;99391.91;7286891;19;153314;-51
2021/12/04 06:25:47;;;;;;;;;;;;;;;18.68;50.05;99397.34;7285493;19;151506;-50
2021/12/04 06:28:15;;;;;;;;;;;;;;;18.74;50.67;99404.41;7287685;19;153129;-51
2021/12/04 06:30:43;;;;;;;;;;;;;;;18.80;50.46;99408.69;7286310;19;153642;-50
2021/12/04 06:33:11;;;;;;;;;;;;;;;18.86;50.13;99412.09;7295581;19;151863;-51
2021/12/04 06:35:41;;;;;;;;;;;;;;;18.91;50.23;99409.94;7285789;19;153287;-50
2021/12/04 06:38:10;;;;;;;;;;;;;;;18.97;50.49;99408.59;7287236;19;151912;-51
2021/12/04 06:40:37;;;;;;;;;;;;;;;19.05;50.44;99406.91;7287061;19;152558;-50
2021/12/04 06:43:04;;;;;;;;;;;;;;;19.12;49.90;99409.22;7286612;19;153397;-50
2021/12/04 06:45:32;;;;;;;;;;;;;;;19.18;50.32;99403.06;7286129;19;152012;-50
2021/12/04 06:48:04;;;;;;;;;;;;;;;19.25;49.73;99406.19;7286300;19;152702;-50
2021/12/04 06:53:00;;;;;;;;;;;;;;;19.40;49.47;99421.56;7287135;19;152334;-50
2021/12/04 06:55:36;;;;;;;;;;;;;;;19.46;49.39;99417.44;7293420;19;152757;-50
2021/12/04 06:58:03;;;;;;;;;;;;;;;19.52;49.23;99405.72;7287181;19;151648;-50
2021/12/04 07:00:30;;;;;;;;;;;;;;;19.58;49.10;99397.91;7285877;19;152759;-50
2021/12/04 07:02:57;;;;;;;;;;;;;;;19.65;49.32;99401.03;7286241;19;153656;-50
2021/12/04 07:05:24;;;;;;;;;;;;;;;19.73;49.39;99413.31;7286577;19;151757;-50
2021/12/04 07:07:51;;;;;;;;;;;;;;;19.79;49.29;99412.78;7283701;19;151609;-50
2021/12/04 07:10:18;;;;;;;;;;;;;;;19.85;48.98;99416.22;7284034;19;152881;-50
2021/12/04 07:12:44;;;;;;;;;;;;;;;19.91;48.68;99423.25;7287194;19;151602;-50
2021/12/04 07:15:12;;;;;;;;;;;;;;;19.97;48.45;99422.72;7285795;19;153202;-51
2021/12/04 07:17:39;;;;;;;;;;;;;;;20.04;48.48;99432.53;7292375;19;152682;-51
2021/12/04 07:20:07;;;;;;;;;;;;;;;20.10;48.24;99433.97;7284218;19;153611;-50
2021/12/04 07:22:34;;;;;;;;;;;;;;;20.16;47.79;99439.06;7285374;19;153800;-50
2021/12/04 07:25:01;;;;;;;;;;;;;;;20.20;48.09;99447.59;7286695;19;151715;-51
2021/12/04 07:27:28;;;;;;;;;;;;;;;20.25;47.99;99433.38;7283792;19;152698;-51
2021/12/04 07:29:55;;;;;;;;;;;;;;;20.30;47.89;99436.00;7284081;19;152346;-50
2021/12/04 07:32:25;;;;;;;;;;;;;;;20.36;47.43;99434.59;7286372;19;151730;-51
2021/12/04 07:34:53;;;;;;;;;;;;;;;20.41;47.84;99451.22;7283796;19;153130;-50
2021/12/04 07:37:20;;;;;;;;;;;;;;;20.46;47.77;99456.63;7291526;19;153952;-51
2021/12/04 07:39:46;;;;;;;;;;;;;;;20.51;47.77;99458.41;7284108;19;152988;-50
2021/12/04 07:42:13;;;;;;;;;;;;;;;20.56;47.29;99463.78;7283447;19;154095;-51
2021/12/04 07:44:40;;;;;;;;;;;;;;;20.60;47.72;99467.56;7285491;19;151742;-51
2021/12/04 07:47:06;;;;;;;;;;;;;;;20.66;47.06;99467.00;7281411;19;152042;-51
2021/12/04 07:49:33;;;;;;;;;;;;;;;20.70;47.23;99469.94;7283976;19;154086;-51
2021/12/04 07:52:00;;;;;;;;;;;;;;;20.74;47.08;99468.91;7284307;19;151905;-50
2021/12/04 07:54:27;;;;;;;;;;;;;;;20.79;47.16;99470.66;7285251;19;152914;-50
2021/12/04 07:56:53;;;;;;;;;;;;;;;20.82;46.64;99476.41;7283689;19;153967;-51
2021/12/04 07:59:20;;;;;;;;;;;;;;;20.86;46.68;99482.97;7292963;19;153028;-50
2021/12/04 08:01:47;;;;;;;;;;;;;;;20.91;46.75;99498.78;7283289;19;153855;-51
2021/12/04 08:04:13;;;;;;;;;;;;;;;20.96;46.90;99497.72;7285027;19;151705;-51
2021/12/04 08:06:40;;;;;;;;;;;;;;;21.00;46.46;99498.66;7283550;19;152753;-51
2021/12/04 08:09:07;;;;;;;;;;;;;;;21.04;46.78;99492.00;7283620;19;153295;-51
2021/12/04 08:11:33;;;;;;;;;;;;;;;21.08;46.22;99494.94;7284448;19;151753;-51
2021/12/04 08:14:00;;;;;;;;;;;;;;;21.13;46.76;99503.19;7284903;19;152778;-51
2021/12/04 08:16:27;;;;;;;;;;;;;;;21.15;46.61;99490.44;7283156;19;153791;-51
2021/12/04 08:18:54;;;;;;;;;;;;;;;21.19;46.91;99499.81;7284358;19;151874;-51
2021/12/04 08:21:21;;;;;;;;;;;;;;;21.22;46.72;99510.34;7290822;19;153280;-51
2021/12/04 08:23:48;;;;;;;;;;;;;;;21.28;46.36;99513.75;7284755;19;151767;-51
2021/12/04 08:26:15;;;;;;;;;;;;;;;21.33;46.73;99526.75;7282173;19;153730;-50
2021/12/04 08:28:42;;;;;;;;;;;;;;;21.36;46.12;99528.84;7279322;19;154424;-51
2021/12/04 08:31:09;;;;;;;;;;;;;;;21.40;45.75;99533.44;7284757;19;151510;-51
2021/12/04 08:33:36;;;;;;;;;;;;;;;21.42;45.54;99525.50;7284102;19;153075;-51
2021/12/04 08:36:04;;;;;;;;;;;;;;;21.44;46.03;99525.16;7280281;19;153290;-51
2021/12/04 08:38:35;;;;;;;;;;;;;;;21.47;45.63;99530.06;7284343;19;152207;-50
2021/12/04 08:41:03;;;;;;;;;;;;;;;21.51;45.73;99533.81;7283620;19;152993;-51
2021/12/04 08:43:30;;;;;;;;;;;;;;;21.53;45.76;99529.47;7290163;19;153331;-50
2021/12/04 08:46:01;;;;;;;;;;;;;;;21.57;46.07;99533.25;7283012;19;153093;-50
2021/12/04 08:48:31;;;;;;;;;;;;;;;21.61;45.44;99550.22;7278417;19;152620;-51
2021/12/04 08:50:59;;;;;;;;;;;;;;;21.63;45.64;99540.25;7289032;19;151783;-51
2021/12/04 08:53:26;;;;;;;;;;;;;;;21.66;45.34;99542.38;7291018;19;152589;-51
2021/12/04 08:55:53;;;;;;;;;;;;;;;21.72;45.35;99549.41;7287773;19;151952;-53
2021/12/04 08:58:20;;;;;;;;;;;;;;;21.74;45.42;99554.69;7290944;19;152006;-50
2021/12/04 09:00:49;;;;;;;;;;;;;;;21.79;45.49;99564.88;7290131;19;152606;-51
2021/12/04 09:03:18;;;;;;;;;;;;;;;21.81;44.86;99554.09;7289000;19;153390;-51
2021/12/04 09:05:45;;;;;;;;;;;;;;;21.83;44.80;99551.75;7296988;19;151944;-50
2021/12/04 09:08:13;;;;;;;;;;;;;;;21.86;44.62;99551.03;7287276;19;153969;-50
2021/12/04 09:10:42;;;;;;;;;;;;;;;21.88;44.59;99563.59;7288814;19;151977;-51
2021/12/04 09:13:10;;;;;;;;;;;;;;;21.93;44.88;99565.38;7287323;19;153344;-50
2021/12/04 09:15:37;;;;;;;;;;;;;;;21.95;45.24;99566.66;7286564;19;153298;-51
2021/12/04 09:18:04;;;;;;;;;;;;;;;21.98;45.56;99577.22;7289863;19;151827;-50
2021/12/04 09:20:32;;;;;;;;;;;;;;;22.01;45.10;99573.69;7289005;19;153864;-51
2021/12/04 09:23:00;;;;;;;;;;;;;;;22.04;45.41;99589.03;7285770;19;152631;-51
2021/12/04 09:25:28;;;;;;;;;;;;;;;21.94;42.57;99569.84;7288308;19;151836;-52
2021/12/04 09:28:10;;;;;;;;;;;;;;;21.44;36.96;99572.91;7294703;19;153062;-51
2021/12/04 09:36:11;;;;;;;;;;;;;;;21.78;39.93;99580.09;7287168;19;154108;-51
2021/12/04 10:11:10;;;;;;;;;;;;;;;21.80;39.31;99605.88;7282344;19;153619;-51
2021/12/04 10:12:46;;;;;;;;;;;;;;;21.78;39.19;99594.97;7286838;19;152666;-52
2021/12/04 10:34:23;;;;;;;;;;;;;;;21.55;39.38;99608.66;7284139;19;153372;-52
2021/12/04 10:36:51;;;;;;;;;;;;;;;21.54;39.20;99612.63;7283514;19;152328;-52
2021/12/04 10:39:19;;;;;;;;;;;;;;;21.49;39.37;99615.66;7292988;19;152605;-51
2021/12/04 10:41:47;;;;;;;;;;;;;;;21.45;38.87;99600.66;7283311;19;154226;-52
2021/12/04 10:44:25;;;;;;;;;;;;;;;21.45;39.27;99595.03;7284375;19;152225;-52
2021/12/04 10:46:52;;;;;;;;;;;;;;;21.40;39.33;99611.28;7285878;19;153425;-52
2021/12/04 10:50:28;;;;;;;;;;;;;;;21.37;39.04;99604.38;7280539;19;152197;-52
2021/12/04 10:52:34;;;;;;;;;;;;;;;21.08;37.08;99588.44;7283363;19;152523;-52
2021/12/04 10:55:10;;;;;;;;;;;;;;;21.19;37.88;99589.69;7284405;19;153366;-52
2021/12/04 11:02:59;;;;;;;;;;;;;;;21.32;38.63;99600.97;7292196;19;153661;-52
2021/12/04 11:22:38;;;;;;;;;;;;;;;21.38;38.31;99583.56;7279100;19;151903;-51
2021/12/04 11:36:22;;;;;;;;;;;;;;;21.35;38.56;99563.78;7283201;19;151723;-52
2021/12/04 11:38:51;;;;;;;;;;;;;;;21.32;38.22;99565.25;7281522;19;152489;-51
2021/12/04 11:41:33;;;;;;;;;;;;;;;21.30;38.63;99556.38;7279183;19;152826;-51
2021/12/04 11:44:13;;;;;;;;;;;;;;;21.29;38.77;99561.19;7283101;19;152112;-51
2021/12/04 11:46:45;;;;;;;;;;;;;;;21.27;38.74;99565.47;7281039;19;153302;-51
2021/12/04 11:49:12;;;;;;;;;;;;;;;21.27;38.68;99559.88;7278160;19;154726;-51
2021/12/04 11:52:00;;;;;;;;;;;;;;;21.22;38.83;99568.50;7286776;19;152044;-52
2021/12/04 11:54:31;;;;;;;;;;;;;;;21.22;38.99;99568.50;7278240;19;154232;-52
2021/12/04 11:56:58;;;;;;;;;;;;;;;21.20;38.81;99573.66;7280906;19;151726;-52
2021/12/04 11:59:26;;;;;;;;;;;;;;;21.17;38.81;99560.28;7281085;19;152252;-53
2021/12/04 12:01:57;;;;;;;;;;;;;;;21.15;38.96;99554.22;7279011;19;153725;-52
2021/12/04 12:04:44;;;;;;;;;;;;;;;21.13;38.53;99559.34;7265688;19;153944;-51
2021/12/04 12:07:26;;;;;;;;;;;;;;;21.11;38.34;99570.91;7277106;19;153237;-51
2021/12/04 12:10:01;;;;;;;;;;;;;;;21.09;38.40;99564.00;7278034;19;152815;-51
2021/12/04 12:12:34;;;;;;;;;;;;;;;21.05;38.42;99577.09;7290126;19;152035;-51
2021/12/04 12:15:05;;;;;;;;;;;;;;;21.03;38.15;99556.97;7280334;19;154000;-51
2021/12/04 12:17:37;;;;;;;;;;;;;;;20.98;37.94;99551.56;7279979;19;151714;-52
2021/12/04 12:20:06;;;;;;;;;;;;;;;20.95;38.21;99546.63;7283381;19;153322;-52
2021/12/04 12:25:15;;;;;;;;;;;;;;;21.01;37.84;99548.06;7291594;19;152000;-51
2021/12/04 12:37:51;;;;;;;;;;;;;;;21.09;37.81;99538.72;7295801;19;151743;-51
2021/12/04 12:40:19;;;;;;;;;;;;;;;21.11;37.96;99545.66;7295649;19;152774;-51
2021/12/04 12:42:46;;;;;;;;;;;;;;;21.12;37.82;99538.03;7293656;19;154003;-51
2021/12/04 12:45:14;;;;;;;;;;;;;;;21.13;37.98;99543.31;7293775;19;152149;-51
2021/12/04 12:47:44;;;;;;;;;;;;;;;21.13;37.57;99548.13;7293456;19;152641;-51
2021/12/04 12:50:23;;;;;;;;;;;;;;;21.11;37.84;99554.06;7293917;19;153854;-51
2021/12/04 12:52:59;;;;;;;;;;;;;;;21.08;37.84;99551.09;7294849;19;152037;-51
2021/12/04 12:55:31;;;;;;;;;;;;;;;21.06;37.41;99561.88;7293362;19;152845;-51
2021/12/04 12:58:10;;;;;;;;;;;;;;;21.05;37.16;99566.69;7296298;19;153917;-52
2021/12/04 13:13:16;;;;;;;;;;;;;;;21.09;37.78;99552.75;7292451;19;152331;-51
2021/12/04 13:15:46;;;;;;;;;;;;;;;21.10;38.04;99543.16;7289254;19;153023;-51
2021/12/04 13:18:20;;;;;;;;;;;;;;;21.14;37.98;99547.78;7289759;19;153880;-51
2021/12/04 13:20:48;;;;;;;;;;;;;;;21.18;37.80;99543.09;7297946;19;151981;-51
2021/12/04 13:23:17;;;;;;;;;;;;;;;21.21;37.57;99550.03;7291243;19;153331;-51
2021/12/04 13:25:47;;;;;;;;;;;;;;;21.24;37.69;99550.16;7288586;19;152668;-51
2021/12/04 13:30:44;;;;;;;;;;;;;;;21.29;37.48;99544.31;7290007;19;152273;-52
2021/12/04 13:33:11;;;;;;;;;;;;;;;21.30;37.09;99539.53;7291864;19;152126;-54
2021/12/04 13:35:39;;;;;;;;;;;;;;;21.34;37.34;99542.44;7288794;19;153026;-52
2021/12/04 13:38:06;;;;;;;;;;;;;;;21.33;37.16;99533.19;7281267;19;152417;-52
2021/12/04 13:40:33;;;;;;;;;;;;;;;21.35;36.99;99542.09;7286453;19;151567;-51
2021/12/04 13:43:00;;;;;;;;;;;;;;;21.36;37.21;99540.09;7289438;19;152180;-51
2021/12/04 13:45:27;;;;;;;;;;;;;;;21.42;37.28;99533.09;7282713;19;151788;-51
2021/12/04 13:47:57;;;;;;;;;;;;;;;21.44;37.18;99540.00;7285539;19;152238;-53
2021/12/04 13:52:58;;;;;;;;;;;;;;;21.49;36.83;99522.91;7285253;19;151869;-51
2021/12/04 13:55:26;;;;;;;;;;;;;;;21.51;37.22;99533.81;7287629;19;153031;-52
2021/12/04 13:57:54;;;;;;;;;;;;;;;21.52;37.07;99538.28;7285751;19;153704;-53
2021/12/04 14:00:25;;;;;;;;;;;;;;;21.50;36.97;99533.00;7283322;19;152500;-54
2021/12/04 14:02:51;;;;;;;;;;;;;;;21.45;36.98;99532.38;7286776;19;152003;-51
2021/12/04 14:05:21;;;;;;;;;;;;;;;21.40;36.99;99530.63;7293112;19;152388;-54
2021/12/04 14:07:49;;;;;;;;;;;;;;;21.37;36.42;99536.13;7282926;19;152520;-53
2021/12/04 14:10:18;;;;;;;;;;;;;;;21.33;36.76;99529.56;7281237;19;154591;-54
2021/12/04 14:12:46;;;;;;;;;;;;;;;21.35;36.90;99542.09;7283771;19;152029;-53
2021/12/04 14:15:15;;;;;;;;;;;;;;;21.30;37.00;99533.91;7283694;19;152619;-53
2021/12/04 14:17:44;;;;;;;;;;;;;;;21.28;36.56;99537.06;7282304;19;154227;-53
2021/12/04 14:20:13;;;;;;;;;;;;;;;21.28;37.06;99545.47;7277497;19;151799;-53
2021/12/04 14:22:43;;;;;;;;;;;;;;;21.27;37.29;99541.03;7282428;19;153009;-53
2021/12/04 14:25:11;;;;;;;;;;;;;;;21.22;36.94;99537.59;7289165;19;153200;-53
2021/12/04 14:27:39;;;;;;;;;;;;;;;21.17;36.68;99546.25;7282518;19;153930;-53
2021/12/04 14:30:09;;;;;;;;;;;;;;;21.14;36.66;99538.53;7280192;19;152528;-53
2021/12/04 14:32:40;;;;;;;;;;;;;;;21.11;36.68;99533.59;7279145;19;153757;-53
2021/12/04 14:35:15;;;;;;;;;;;;;;;21.12;36.66;99529.63;7280346;19;152289;-52
2021/12/04 14:37:44;;;;;;;;;;;;;;;21.10;37.29;99534.75;7283906;19;153672;-52
2021/12/04 14:40:13;;;;;;;;;;;;;;;21.07;37.05;99533.47;7280018;19;152369;-51
2021/12/04 14:42:41;;;;;;;;;;;;;;;21.08;37.13;99539.88;7282659;19;153740;-52
2021/12/04 14:45:09;;;;;;;;;;;;;;;21.05;37.54;99546.19;7283483;19;153410;-53
2021/12/04 14:47:37;;;;;;;;;;;;;;;20.97;37.14;99549.91;7291134;19;151943;-53
2021/12/04 14:50:05;;;;;;;;;;;;;;;20.96;36.83;99532.25;7279086;19;153332;-53
2021/12/04 14:52:33;;;;;;;;;;;;;;;20.91;37.23;99542.88;7284387;19;151557;-52
2021/12/04 14:55:12;;;;;;;;;;;;;;;20.85;36.67;99533.84;7280783;19;153028;-53
2021/12/04 14:57:40;;;;;;;;;;;;;;;20.82;36.68;99542.94;7282086;19;153241;-52
2021/12/04 15:00:09;;;;;;;;;;;;;;;20.76;36.75;99550.75;7279529;19;151914;-53
2021/12/04 15:02:36;;;;;;;;;;;;;;;20.72;36.86;99546.19;7282758;19;153316;-52
2021/12/04 15:05:05;;;;;;;;;;;;;;;20.73;37.04;99545.84;7280723;19;154046;-51
2021/12/04 15:07:34;;;;;;;;;;;;;;;20.70;36.93;99554.13;7280069;19;152578;-51
2021/12/04 15:10:04;;;;;;;;;;;;;;;20.68;37.16;99550.84;7288156;19;153836;-51
2021/12/04 15:12:33;;;;;;;;;;;;;;;20.66;37.37;99559.63;7284066;19;152724;-52
2021/12/04 15:15:02;;;;;;;;;;;;;;;20.66;37.51;99561.59;7281276;19;152189;-51
2021/12/04 15:17:30;;;;;;;;;;;;;;;20.64;37.70;99567.53;7278359;19;152358;-52
2021/12/04 15:20:00;;;;;;;;;;;;;;;20.64;37.93;99575.13;7284333;19;152729;-52
2021/12/04 15:22:32;;;;;;;;;;;;;;;20.63;37.73;99585.53;7283821;19;153258;-52
2021/12/04 15:24:59;;;;;;;;;;;;;;;20.57;37.84;99570.09;7282128;19;153232;-53
2021/12/04 15:27:29;;;;;;;;;;;;;;;20.51;37.19;99579.03;7281031;19;151994;-52
2021/12/04 15:29:57;;;;;;;;;;;;;;;20.50;37.20;99578.22;7280703;19;153516;-52
2021/12/04 15:32:25;;;;;;;;;;;;;;;20.49;36.92;99593.41;7286702;19;153435;-53
2021/12/04 15:34:58;;;;;;;;;;;;;;;20.52;37.01;99575.09;7283361;19;152078;-53
2021/12/04 15:37:28;;;;;;;;;;;;;;;20.53;37.03;99583.16;7281237;19;152142;-53
2021/12/04 15:39:55;;;;;;;;;;;;;;;20.55;37.21;99575.22;7280969;19;152009;-53
2021/12/04 15:42:28;;;;;;;;;;;;;;;20.58;36.79;99568.91;7279313;19;153136;-53
2021/12/04 15:47:36;;;;;;;;;;;;;;;20.62;36.90;99569.88;7279023;19;152375;-53
2021/12/04 15:52:48;;;;;;;;;;;;;;;20.69;36.21;99564.53;7279315;19;153617;-52
2021/12/04 15:55:24;;;;;;;;;;;;;;;20.73;36.57;99562.69;7287523;19;152371;-52
2021/12/04 15:57:53;;;;;;;;;;;;;;;20.77;36.50;99562.81;7277898;19;153518;-52
2021/12/04 16:00:20;;;;;;;;;;;;;;;20.78;36.21;99556.88;7276709;19;151643;-52